Barisal, Bangladesh
Current Conditions -  °F | °C
As of 1:50 PM on Thursday 27 Nov 2014 (Local Time) from VGHS Reporting Station
Haze Haze  
Wind Chill: 79°   Ceiling: Unl
Heat Index: 80°   Visibility: 2.1mi
Dew Point: 61°   Wind: 0mph
Humidity: 54%   Direction: NA
Pressure: 29.8"   Gusts: NA
Location:  22.7°N, 90.37°E
Report Text: VGHS 270750Z 00000KT 3500 HZ NSC 26/16 Q1009 NOSIG
Loading
Personal Weather Stations






























Interactive Weather Map New forecast layout! Learn more

10-Day Weather Forecast

Advertisements
Track Severe Weather on mobile